Open Full Screen Window  High Contrast Mode
Wind Gusting 00 knots
04
June 30, 2015 2:34 PM CDT
Weather Information
Wind Direction
  290 °
Wind Speed
  04 kt (5 mph)
Wind Gust
  00 kt (0 mph)
Altimeter
29.80 in
Visibility
10 SM
Temperature
24° C
75° F
Dewpoint
19° C
66° F
Humidity
74%
Sky Condition
Scattered @ 4,200 ft
Scattered @ 3,500 ft
Scattered @ 2,800 ft
VFR

METAR KAXV 301934Z AUTO 29004KT 10SM SCT028 SCT035 SCT042 24/19 A2980 RMK AO2 LTG DSNT S

*Background is not an actual portrayal of the airport.